Time;durP1;ratioP1;P1;durP2;ratioP2;P2;SDS_P1;SDS_P2;PMS_P1;PMS_P2;Temp;Humidity;BMP_temperature;BMP_pressure;BME280_temperature;BME280_humidity;BME280_pressure;Samples;Min_cycle;Max_cycle;Signal;HPM_P1;HPM_P2
2021/06/17 00:00:18;;;;;;;5.13;4.53;;;18.80;99.90;;;;;;5044200;28;21008;-86
2021/06/17 00:02:46;;;;;;;5.10;4.00;;;18.80;99.90;;;;;;5045799;28;20630;-86
2021/06/17 00:05:15;;;;;;;5.50;4.47;;;18.70;99.90;;;;;;5043643;28;20632;-85
2021/06/17 00:07:42;;;;;;;4.80;4.40;;;18.70;99.90;;;;;;5044086;28;20614;-85
2021/06/17 00:10:13;;;;;;;5.67;5.10;;;18.70;99.90;;;;;;5042314;28;20673;-86
2021/06/17 00:12:40;;;;;;;7.23;4.17;;;18.70;99.90;;;;;;5042263;28;20642;-85
2021/06/17 00:15:11;;;;;;;4.67;4.37;;;18.70;99.90;;;;;;5043356;28;20697;-86
2021/06/17 00:17:38;;;;;;;5.00;4.50;;;18.70;99.90;;;;;;5041356;28;20653;-85
2021/06/17 00:20:07;;;;;;;5.57;5.07;;;18.60;99.90;;;;;;5041670;28;20650;-86
2021/06/17 00:22:35;;;;;;;6.53;4.70;;;18.50;99.90;;;;;;5040652;28;21153;-85
2021/06/17 00:25:01;;;;;;;5.60;4.70;;;18.50;99.90;;;;;;5042204;28;21090;-86
2021/06/17 00:27:28;;;;;;;4.13;3.83;;;18.50;99.90;;;;;;5051166;28;20620;-86
2021/06/17 00:29:55;;;;;;;4.73;4.33;;;18.40;99.90;;;;;;5041389;28;20842;-86
2021/06/17 00:32:23;;;;;;;5.07;4.57;;;18.40;99.90;;;;;;5042156;28;20633;-86
2021/06/17 00:34:50;;;;;;;4.30;4.00;;;18.40;99.90;;;;;;5044388;28;20879;-86
2021/06/17 00:37:17;;;;;;;4.20;3.80;;;18.20;99.90;;;;;;5041603;28;20622;-86
2021/06/17 00:39:44;;;;;;;5.43;4.83;;;18.30;99.90;;;;;;5040610;28;20645;-86
2021/06/17 00:42:11;;;;;;;4.90;4.50;;;18.20;99.90;;;;;;5043980;28;20634;-86
2021/06/17 00:44:38;;;;;;;4.90;4.50;;;18.10;99.90;;;;;;5040939;28;21138;-86
2021/06/17 00:47:05;;;;;;;5.53;5.03;;;18.20;99.90;;;;;;5043496;28;20645;-86
2021/06/17 00:49:33;;;;;;;6.60;5.47;;;18.10;99.90;;;;;;5040274;28;20889;-86
2021/06/17 00:52:02;;;;;;;5.20;4.80;;;18.20;99.90;;;;;;5041840;28;20630;-86
2021/06/17 00:54:33;;;;;;;4.93;4.43;;;18.10;99.90;;;;;;5043078;28;20642;-85
2021/06/17 00:57:01;;;;;;;5.60;4.33;;;18.10;99.90;;;;;;5045764;28;20629;-85
2021/06/17 00:59:28;;;;;;;5.60;5.10;;;18.10;99.90;;;;;;5042604;28;20630;-85
2021/06/17 01:01:55;;;;;;;6.53;5.03;;;18.00;99.90;;;;;;5042311;28;20614;-86
2021/06/17 01:04:23;;;;;;;4.27;3.87;;;17.90;99.90;;;;;;5039388;28;20697;-86
2021/06/17 01:06:51;;;;;;;6.10;5.00;;;17.90;99.90;;;;;;5042458;28;20630;-85
2021/06/17 01:09:29;;;;;;;4.30;4.00;;;17.90;99.90;;;;;;5040854;28;20656;-86
2021/06/17 01:12:07;;;;;;;5.50;4.70;;;17.80;99.90;;;;;;5041615;28;20650;-86
2021/06/17 01:14:39;;;;;;;4.87;4.47;;;17.80;99.90;;;;;;5042249;28;20630;-85
2021/06/17 01:17:09;;;;;;;6.23;5.07;;;17.80;99.90;;;;;;5039944;28;20637;-86
2021/06/17 01:19:53;;;;;;;7.90;5.63;;;17.70;99.90;;;;;;5038356;28;21239;-87
2021/06/17 01:22:34;;;;;;;4.80;4.30;;;17.70;99.90;;;;;;5040142;28;20956;-84
2021/06/17 01:25:14;;;;;;;5.43;4.93;;;17.70;99.90;;;;;;5040586;28;20638;-88
2021/06/17 01:28:01;;;;;;;5.70;4.70;;;17.60;99.90;;;;;;5042962;28;20624;-86
2021/06/17 01:30:31;;;;;;;5.10;4.70;;;17.60;99.90;;;;;;5041896;28;20670;-86
2021/06/17 01:33:01;;;;;;;5.73;4.90;;;17.60;99.90;;;;;;5041290;28;20634;-86
2021/06/17 01:35:29;;;;;;;5.17;4.60;;;17.60;99.90;;;;;;5036893;28;20629;-86
2021/06/17 01:37:59;;;;;;;5.90;5.40;;;17.50;99.90;;;;;;5027468;28;20634;-87
2021/06/17 01:40:27;;;;;;;5.47;4.97;;;17.50;99.90;;;;;;5035652;28;20676;-86
2021/06/17 01:42:57;;;;;;;6.30;5.70;;;17.50;99.90;;;;;;5036349;28;20625;-88
2021/06/17 01:45:25;;;;;;;5.20;4.80;;;17.40;99.90;;;;;;5040218;28;20696;-87
2021/06/17 01:47:53;;;;;;;5.30;4.90;;;17.40;99.90;;;;;;5038754;28;20625;-86
2021/06/17 01:50:23;;;;;;;4.70;4.37;;;17.30;99.90;;;;;;5023175;28;20709;-87
2021/06/17 01:52:52;;;;;;;5.53;5.07;;;17.40;99.90;;;;;;5039895;28;20642;-86
2021/06/17 01:55:19;;;;;;;4.87;4.40;;;17.40;99.90;;;;;;5038688;28;21028;-87
2021/06/17 01:57:47;;;;;;;8.07;5.30;;;17.30;99.90;;;;;;5039653;28;21062;-86
2021/06/17 02:00:16;;;;;;;5.50;5.00;;;17.40;99.90;;;;;;5040319;28;20644;-88
2021/06/17 02:02:43;;;;;;;5.83;5.20;;;17.30;99.90;;;;;;5040896;28;20630;-87
2021/06/17 02:05:12;;;;;;;5.07;4.67;;;17.30;99.90;;;;;;5038909;28;21014;-87
2021/06/17 02:07:42;;;;;;;5.30;4.80;;;17.30;99.90;;;;;;5035612;28;20591;-88
2021/06/17 02:10:10;;;;;;;6.50;5.90;;;17.20;99.90;;;;;;5038358;28;20693;-87
2021/06/17 02:12:39;;;;;;;5.40;4.43;;;17.20;99.90;;;;;;5039644;28;21099;-87
2021/06/17 02:15:08;;;;;;;5.80;5.20;;;17.20;99.90;;;;;;5038486;28;20625;-87
2021/06/17 02:17:38;;;;;;;5.23;4.83;;;17.10;99.90;;;;;;5039994;28;21031;-87
2021/06/17 02:20:07;;;;;;;5.27;4.83;;;17.10;99.90;;;;;;5039518;28;20656;-87
2021/06/17 02:22:35;;;;;;;5.53;5.13;;;17.10;99.90;;;;;;5041478;28;20856;-87
2021/06/17 02:25:02;;;;;;;5.67;5.17;;;17.00;99.90;;;;;;5037274;28;20679;-88
2021/06/17 02:27:31;;;;;;;4.70;4.40;;;16.90;99.90;;;;;;5040516;28;21005;-86
2021/06/17 02:30:04;;;;;;;5.20;4.80;;;16.90;99.90;;;;;;5038387;28;21274;-86
2021/06/17 02:32:32;;;;;;;7.13;4.90;;;16.90;99.90;;;;;;5038328;28;20632;-86
2021/06/17 02:35:04;;;;;;;5.83;5.20;;;17.00;99.90;;;;;;5041816;28;20986;-86
2021/06/17 02:37:32;;;;;;;7.43;4.70;;;16.90;99.90;;;;;;5041763;28;20683;-86
2021/06/17 02:40:00;;;;;;;4.93;4.57;;;16.90;99.90;;;;;;5039390;28;21122;-86
2021/06/17 02:42:29;;;;;;;5.33;4.93;;;16.90;99.90;;;;;;5045905;28;21000;-86
2021/06/17 02:44:57;;;;;;;4.93;4.43;;;16.90;99.90;;;;;;5042882;28;21012;-86
2021/06/17 02:47:24;;;;;;;5.13;4.80;;;16.90;99.90;;;;;;5037420;28;20637;-86
2021/06/17 02:49:51;;;;;;;5.17;4.80;;;16.80;99.90;;;;;;5036309;28;20677;-86
2021/06/17 02:52:19;;;;;;;4.20;3.90;;;16.90;99.90;;;;;;5040651;28;20646;-86
2021/06/17 02:54:46;;;;;;;5.13;4.73;;;16.80;99.90;;;;;;5044369;28;20622;-86
2021/06/17 02:57:21;;;;;;;7.87;5.10;;;16.80;99.90;;;;;;5043453;28;20630;-86
2021/06/17 03:00:01;;;;;;;5.80;4.67;;;16.70;99.90;;;;;;5044893;28;21222;-86
2021/06/17 03:02:35;;;;;;;5.93;4.63;;;16.70;99.90;;;;;;5045143;28;20628;-87
2021/06/17 03:05:08;;;;;;;6.00;5.50;;;16.70;99.90;;;;;;5046053;28;21391;-87
2021/06/17 03:07:45;;;;;;;7.37;5.27;;;16.70;99.90;;;;;;5043416;28;21474;-87
2021/06/17 03:10:13;;;;;;;5.30;4.90;;;16.70;99.90;;;;;;5043292;28;20693;-88
2021/06/17 03:12:46;;;;;;;4.83;4.30;;;16.70;99.90;;;;;;5045361;28;20638;-88
2021/06/17 03:15:13;;;;;;;5.20;4.70;;;16.70;99.90;;;;;;5044632;28;20714;-88
2021/06/17 03:17:45;;;;;;;5.13;4.73;;;16.70;99.90;;;;;;5042985;28;20638;-87
2021/06/17 03:20:12;;;;;;;5.00;4.60;;;16.70;99.90;;;;;;5045271;28;20654;-87
2021/06/17 03:22:45;;;;;;;5.20;4.23;;;16.70;99.90;;;;;;5042869;28;20622;-88
2021/06/17 03:25:16;;;;;;;5.47;4.97;;;16.70;99.90;;;;;;5041568;28;20656;-87
2021/06/17 03:27:49;;;;;;;6.00;5.30;;;16.70;99.90;;;;;;5043687;28;20659;-86
2021/06/17 03:30:19;;;;;;;5.30;4.60;;;16.70;99.90;;;;;;5032517;28;20685;-86
2021/06/17 03:32:48;;;;;;;5.57;4.97;;;16.60;99.90;;;;;;5038934;28;20619;-86
2021/06/17 03:35:16;;;;;;;5.07;4.67;;;16.60;99.90;;;;;;5044051;28;20634;-86
2021/06/17 03:37:46;;;;;;;5.27;4.77;;;16.70;99.90;;;;;;5044054;28;20637;-86
2021/06/17 03:40:14;;;;;;;5.50;4.87;;;16.70;99.90;;;;;;5041590;28;20653;-86
2021/06/17 03:42:42;;;;;;;7.83;4.90;;;16.70;99.90;;;;;;5041427;28;20645;-88
2021/06/17 03:45:11;;;;;;;4.97;4.50;;;16.60;99.90;;;;;;5039472;28;20985;-87
2021/06/17 03:47:42;;;;;;;5.17;4.77;;;16.70;99.90;;;;;;5042394;28;21183;-87
2021/06/17 03:50:12;;;;;;;5.50;5.00;;;16.70;99.90;;;;;;5041107;28;20681;-87
2021/06/17 03:52:39;;;;;;;5.33;4.80;;;16.70;99.90;;;;;;5041051;28;20708;-87
2021/06/17 03:55:09;;;;;;;5.33;4.93;;;16.60;99.90;;;;;;5046238;28;20628;-87
2021/06/17 03:57:37;;;;;;;5.60;5.20;;;16.60;99.90;;;;;;5041770;28;20617;-87
2021/06/17 04:00:05;;;;;;;4.87;4.43;;;16.70;99.90;;;;;;5038207;28;20661;-87
2021/06/17 04:02:32;;;;;;;5.17;4.67;;;16.80;99.90;;;;;;5041048;28;21000;-87
2021/06/17 04:04:59;;;;;;;5.80;5.40;;;16.80;99.90;;;;;;5042495;28;20723;-87
2021/06/17 04:07:29;;;;;;;6.70;4.50;;;16.80;99.90;;;;;;5043517;28;20591;-87
2021/06/17 04:10:00;;;;;;;5.60;4.60;;;16.80;99.90;;;;;;5041432;28;20649;-87
2021/06/17 04:12:30;;;;;;;6.10;4.77;;;16.80;99.90;;;;;;5042052;28;20645;-87
2021/06/17 04:15:00;;;;;;;5.87;5.33;;;16.90;99.90;;;;;;5043090;28;21020;-87
2021/06/17 04:17:30;;;;;;;6.20;5.70;;;17.00;99.90;;;;;;5045833;28;20645;-87
2021/06/17 04:19:59;;;;;;;5.77;5.20;;;17.00;99.90;;;;;;5045924;28;20649;-87
2021/06/17 04:22:27;;;;;;;6.60;5.50;;;17.00;99.90;;;;;;5043067;28;20626;-88
2021/06/17 04:25:00;;;;;;;5.90;5.03;;;17.10;99.90;;;;;;5041362;28;20641;-89
2021/06/17 04:27:29;;;;;;;5.50;5.03;;;17.10;99.90;;;;;;5046718;28;20793;-89
2021/06/17 04:29:58;;;;;;;7.07;5.53;;;17.20;99.90;;;;;;5042102;28;20661;-89
2021/06/17 04:32:26;;;;;;;6.27;5.67;;;17.20;99.90;;;;;;5040530;28;20732;-89
2021/06/17 04:34:55;;;;;;;8.00;5.40;;;17.20;99.90;;;;;;5045777;28;20696;-89
2021/06/17 04:37:25;;;;;;;6.90;5.10;;;17.30;99.90;;;;;;5041563;28;20633;-89
2021/06/17 04:39:55;;;;;;;5.70;5.10;;;17.30;99.90;;;;;;5042002;28;21307;-87
2021/06/17 04:42:23;;;;;;;4.97;4.57;;;17.40;99.90;;;;;;5046940;28;20636;-87
2021/06/17 04:44:53;;;;;;;6.17;5.57;;;17.40;99.90;;;;;;5047058;28;20621;-85
2021/06/17 04:47:20;;;;;;;5.53;5.07;;;17.40;99.90;;;;;;5041395;28;20645;-84
2021/06/17 04:49:49;;;;;;;7.93;5.70;;;17.50;99.90;;;;;;5022393;28;20997;-84
2021/06/17 04:52:21;;;;;;;7.80;5.17;;;17.60;99.90;;;;;;5039555;28;20658;-84
2021/06/17 04:54:48;;;;;;;7.00;6.30;;;17.80;99.90;;;;;;5043198;28;20665;-84
2021/06/17 04:57:15;;;;;;;6.80;5.43;;;17.90;99.90;;;;;;5043067;28;20618;-85
2021/06/17 04:59:42;;;;;;;5.83;5.30;;;18.00;99.90;;;;;;5044674;28;21246;-84
2021/06/17 05:02:10;;;;;;;6.27;5.37;;;18.10;99.90;;;;;;5040444;28;20626;-85
2021/06/17 05:04:38;;;;;;;6.50;5.90;;;18.20;99.90;;;;;;5042869;28;20618;-85
2021/06/17 05:07:25;;;;;;;6.70;6.10;;;18.30;99.90;;;;;;5044781;28;20634;-85
2021/06/17 05:12:36;;;;;;;7.90;5.93;;;18.60;99.90;;;;;;5041041;28;20629;-84
2021/06/17 05:15:04;;;;;;;6.60;5.50;;;18.70;99.90;;;;;;5039668;28;21200;-84
2021/06/17 05:17:32;;;;;;;8.53;5.00;;;18.80;99.90;;;;;;5040677;28;20618;-83
2021/06/17 05:19:59;;;;;;;8.83;5.30;;;18.90;99.90;;;;;;5041948;28;21015;-85
2021/06/17 05:22:26;;;;;;;8.40;5.53;;;19.00;99.90;;;;;;5040224;28;21181;-85
2021/06/17 05:24:53;;;;;;;10.93;6.00;;;19.10;99.90;;;;;;5039642;28;20626;-85
2021/06/17 05:27:20;;;;;;;5.80;5.20;;;19.30;99.90;;;;;;5036630;28;21211;-84
2021/06/17 05:29:47;;;;;;;9.13;5.07;;;19.40;99.90;;;;;;5039685;28;21294;-85
2021/06/17 05:32:15;;;;;;;7.20;5.90;;;19.60;99.90;;;;;;5043431;28;20662;-84
2021/06/17 05:34:43;;;;;;;6.43;5.57;;;19.70;99.90;;;;;;5043100;28;20630;-86
2021/06/17 05:37:10;;;;;;;7.87;5.40;;;19.90;99.90;;;;;;5040481;28;20718;-86
2021/06/17 05:39:37;;;;;;;6.43;5.70;;;20.00;99.90;;;;;;5040618;28;20657;-85
2021/06/17 05:42:05;;;;;;;5.67;5.17;;;20.10;99.90;;;;;;5041638;28;20625;-86
2021/06/17 05:44:32;;;;;;;7.20;5.37;;;20.20;99.90;;;;;;5042401;28;20843;-85
2021/06/17 05:46:58;;;;;;;8.27;6.10;;;20.20;99.90;;;;;;5039088;28;20626;-85
2021/06/17 05:49:25;;;;;;;7.37;6.60;;;20.20;99.90;;;;;;5038510;28;20646;-86
2021/06/17 05:51:54;;;;;;;9.53;6.80;;;20.30;99.90;;;;;;5037616;28;20652;-86
2021/06/17 05:54:20;;;;;;;9.53;6.07;;;20.30;99.90;;;;;;5042467;28;20633;-86
2021/06/17 05:56:47;;;;;;;8.90;6.80;;;20.30;99.90;;;;;;5043101;28;20630;-87
2021/06/17 05:59:17;;;;;;;6.77;6.17;;;20.50;99.90;;;;;;5040120;28;21176;-86
2021/06/17 06:01:44;;;;;;;7.03;6.33;;;20.60;99.90;;;;;;5039152;28;20665;-87
2021/06/17 06:04:10;;;;;;;10.60;7.73;;;20.70;99.90;;;;;;5040553;28;20629;-86
2021/06/17 06:06:37;;;;;;;7.40;6.70;;;20.70;99.90;;;;;;5031003;28;20627;-86
2021/06/17 06:09:05;;;;;;;11.30;6.67;;;20.70;99.90;;;;;;5039025;28;20637;-86
2021/06/17 06:11:32;;;;;;;7.20;5.80;;;20.80;99.90;;;;;;5038290;28;20698;-86
2021/06/17 06:13:59;;;;;;;6.90;5.80;;;20.90;99.90;;;;;;5041376;28;21120;-85
2021/06/17 06:16:27;;;;;;;6.27;5.40;;;21.10;99.90;;;;;;5041077;28;20701;-85
2021/06/17 06:18:54;;;;;;;5.63;4.90;;;21.20;99.90;;;;;;5040639;28;20620;-85
2021/06/17 06:21:21;;;;;;;7.13;5.33;;;21.40;99.90;;;;;;5024659;28;20653;-85
2021/06/17 06:23:47;;;;;;;6.53;5.93;;;21.40;99.90;;;;;;5040651;28;20618;-85
2021/06/17 06:26:16;;;;;;;10.07;6.13;;;21.60;99.90;;;;;;5038699;28;21188;-85
2021/06/17 06:28:42;;;;;;;7.90;5.77;;;21.80;99.90;;;;;;5040753;28;20625;-85
2021/06/17 06:31:10;;;;;;;8.90;5.13;;;21.90;99.90;;;;;;5041568;28;20665;-85
2021/06/17 06:33:37;;;;;;;6.03;5.47;;;22.00;99.90;;;;;;5040722;28;20648;-85
2021/06/17 06:36:04;;;;;;;8.00;5.13;;;22.10;99.90;;;;;;5041461;28;21193;-85
2021/06/17 06:38:31;;;;;;;4.63;4.23;;;22.20;99.90;;;;;;5039716;28;20629;-86
2021/06/17 06:40:59;;;;;;;5.33;4.83;;;22.30;99.90;;;;;;5039269;28;20650;-86
2021/06/17 06:43:27;;;;;;;8.93;5.70;;;22.40;99.90;;;;;;5040994;28;20610;-85
2021/06/17 06:45:54;;;;;;;6.03;4.70;;;22.50;99.90;;;;;;5039906;28;20626;-85
2021/06/17 06:48:21;;;;;;;5.60;4.70;;;22.70;99.90;;;;;;5039786;28;21051;-85
2021/06/17 06:50:48;;;;;;;5.20;4.40;;;23.00;99.90;;;;;;5036575;28;20658;-85
2021/06/17 06:53:15;;;;;;;10.47;5.53;;;23.10;99.90;;;;;;5038852;28;20741;-85
2021/06/17 06:55:42;;;;;;;8.90;5.60;;;23.20;99.90;;;;;;5038523;28;20617;-86
2021/06/17 06:58:09;;;;;;;7.60;4.90;;;23.20;99.90;;;;;;5039644;28;20614;-86
2021/06/17 07:00:40;;;;;;;5.80;5.30;;;23.20;99.90;;;;;;5040198;28;20649;-87
2021/06/17 07:03:07;;;;;;;5.47;5.07;;;23.30;99.90;;;;;;5037465;28;20638;-86
2021/06/17 07:05:34;;;;;;;7.87;4.40;;;23.30;99.90;;;;;;5039840;28;20621;-85
2021/06/17 07:08:04;;;;;;;10.00;5.17;;;23.40;99.90;;;;;;5041101;28;20636;-86
2021/06/17 07:10:31;;;;;;;6.67;4.53;;;23.30;99.90;;;;;;5039563;28;20733;-86
2021/06/17 07:12:57;;;;;;;9.10;4.90;;;23.40;99.90;;;;;;5039955;28;20666;-85
2021/06/17 07:15:24;;;;;;;6.90;5.40;;;23.50;99.90;;;;;;5042064;28;20625;-84
2021/06/17 07:17:53;;;;;;;5.57;4.87;;;23.60;99.90;;;;;;5040365;28;20610;-85
2021/06/17 07:20:19;;;;;;;10.23;4.93;;;23.60;99.90;;;;;;5041306;28;21125;-85
2021/06/17 07:22:46;;;;;;;10.67;5.10;;;23.70;99.90;;;;;;5036930;28;20620;-86
2021/06/17 07:25:14;;;;;;;6.13;4.57;;;23.80;99.90;;;;;;5042894;28;20633;-86
2021/06/17 07:27:40;;;;;;;7.00;4.57;;;24.00;99.90;;;;;;5053076;28;20712;-86
2021/06/17 07:30:09;;;;;;;5.73;4.80;;;24.10;99.90;;;;;;5049872;28;20654;-86
2021/06/17 07:32:36;;;;;;;11.07;4.70;;;24.30;99.90;;;;;;5049726;28;21279;-85
2021/06/17 07:35:05;;;;;;;7.43;5.13;;;24.30;99.90;;;;;;5048172;28;20701;-86
2021/06/17 07:37:31;;;;;;;7.77;5.10;;;24.40;99.90;;;;;;5057846;28;21095;-86
2021/06/17 07:39:58;;;;;;;6.20;4.17;;;24.60;99.90;;;;;;5047870;28;20654;-86
2021/06/17 07:42:25;;;;;;;10.03;4.20;;;24.70;99.90;;;;;;5047778;28;20622;-86
2021/06/17 07:44:52;;;;;;;5.67;4.57;;;24.80;99.90;;;;;;5046690;28;20626;-87
2021/06/17 07:47:20;;;;;;;4.57;4.17;;;24.80;99.80;;;;;;5046039;28;20714;-84
2021/06/17 07:49:47;;;;;;;5.57;4.67;;;25.00;99.90;;;;;;5041923;28;21286;-85
2021/06/17 07:52:15;;;;;;;6.03;4.47;;;25.10;99.50;;;;;;5043425;28;20657;-84
2021/06/17 07:54:42;;;;;;;6.80;4.20;;;25.20;99.40;;;;;;5044248;28;20626;-85
2021/06/17 07:57:08;;;;;;;4.03;3.73;;;25.30;98.80;;;;;;5042010;28;20626;-85
2021/06/17 07:59:35;;;;;;;7.40;4.67;;;25.50;98.40;;;;;;5043496;28;20662;-85
2021/06/17 08:02:03;;;;;;;6.27;4.30;;;25.50;98.10;;;;;;5042401;28;20629;-87
2021/06/17 08:04:30;;;;;;;6.23;4.30;;;25.50;98.20;;;;;;5043308;28;20633;-87
2021/06/17 08:06:57;;;;;;;5.13;4.63;;;25.60;98.10;;;;;;5042403;28;20629;-85
2021/06/17 08:09:25;;;;;;;4.90;4.50;;;25.80;97.80;;;;;;5042973;28;20648;-86
2021/06/17 08:11:53;;;;;;;15.33;5.20;;;25.90;97.30;;;;;;5042708;28;20657;-83
2021/06/17 08:14:24;;;;;;;4.80;4.40;;;25.90;97.50;;;;;;5046386;28;20641;-94
2021/06/17 08:16:52;;;;;;;7.70;4.40;;;25.80;97.70;;;;;;5044779;28;20630;-93
2021/06/17 08:21:57;;;;;;;5.13;4.20;;;25.70;97.70;;;;;;5065995;28;20696;-94
2021/06/17 08:24:29;;;;;;;6.20;4.30;;;25.90;97.80;;;;;;5066254;28;20699;-94
2021/06/17 08:26:56;;;;;;;4.50;4.03;;;26.00;97.10;;;;;;5061724;28;20631;-93
2021/06/17 08:29:24;;;;;;;4.43;3.80;;;26.10;96.80;;;;;;5060797;28;20651;-94
2021/06/17 08:31:52;;;;;;;8.70;4.00;;;26.30;96.90;;;;;;5057394;28;20665;-92
2021/06/17 08:34:23;;;;;;;5.50;4.17;;;26.40;96.40;;;;;;5064176;28;21194;-95
2021/06/17 08:36:50;;;;;;;6.50;4.20;;;26.50;96.60;;;;;;5051585;28;20656;-94
2021/06/17 08:39:17;;;;;;;4.57;4.17;;;26.60;95.90;;;;;;5059090;28;20679;-93
2021/06/17 08:41:46;;;;;;;6.97;4.57;;;26.80;95.40;;;;;;5059889;28;20661;-93
2021/06/17 08:44:13;;;;;;;5.30;4.53;;;26.90;94.90;;;;;;5060739;28;20643;-92
2021/06/17 08:46:40;;;;;;;5.80;4.50;;;27.00;95.30;;;;;;5058569;28;20645;-92
2021/06/17 08:49:08;;;;;;;7.60;4.37;;;27.20;94.50;;;;;;5061597;28;20629;-92
2021/06/17 08:51:39;;;;;;;6.03;4.00;;;27.20;93.60;;;;;;5057984;28;20687;-92
2021/06/17 08:54:07;;;;;;;5.30;4.13;;;27.30;94.20;;;;;;5062196;28;20640;-92
2021/06/17 08:56:34;;;;;;;14.90;4.80;;;27.40;94.20;;;;;;5056760;28;20991;-92
2021/06/17 08:59:04;;;;;;;6.50;3.97;;;27.50;93.90;;;;;;5058432;28;20637;-92
2021/06/17 09:01:31;;;;;;;6.00;4.40;;;27.60;94.00;;;;;;5058816;28;20744;-92
2021/06/17 09:03:58;;;;;;;13.03;4.23;;;27.60;93.40;;;;;;5061754;28;20617;-93
2021/06/17 09:06:26;;;;;;;5.03;4.40;;;27.70;93.30;;;;;;5059147;28;20707;-92
2021/06/17 09:09:00;;;;;;;4.40;4.00;;;27.80;93.70;;;;;;5066092;28;20663;-92
2021/06/17 09:11:28;;;;;;;4.30;3.90;;;27.90;93.20;;;;;;5067978;28;20684;-92
2021/06/17 09:14:16;;;;;;;4.50;4.10;;;27.90;93.10;;;;;;5065526;28;20621;-92
2021/06/17 09:16:57;;;;;;;7.47;4.50;;;28.10;92.70;;;;;;5061215;28;20868;-92
2021/06/17 09:19:40;;;;;;;4.70;4.30;;;28.30;91.50;;;;;;5062148;28;20628;-90
2021/06/17 09:22:08;;;;;;;5.40;4.03;;;28.40;91.50;;;;;;5061799;28;21406;-92
2021/06/17 09:24:37;;;;;;;7.00;4.63;;;28.40;91.50;;;;;;5065642;28;20636;-95
2021/06/17 09:27:30;;;;;;;4.90;4.50;;;28.60;91.40;;;;;;5068721;28;20621;-91
2021/06/17 09:30:18;;;;;;;11.20;4.30;;;28.50;90.60;;;;;;5047149;28;20626;-92
2021/06/17 09:32:50;;;;;;;5.23;4.03;;;28.70;90.30;;;;;;5066409;28;20672;-92
2021/06/17 09:35:19;;;;;;;6.00;4.33;;;29.00;89.60;;;;;;5063987;28;20641;-92
2021/06/17 09:37:47;;;;;;;4.57;4.03;;;29.30;89.20;;;;;;5066083;28;20648;-92
2021/06/17 09:40:28;;;;;;;3.83;3.50;;;29.50;86.30;;;;;;5061346;28;20597;-93
2021/06/17 09:43:13;;;;;;;7.37;3.63;;;29.80;84.20;;;;;;5061717;28;20652;-92
2021/06/17 09:45:50;;;;;;;5.13;4.47;;;30.00;83.90;;;;;;5060719;28;21185;-92
2021/06/17 09:48:40;;;;;;;6.40;3.90;;;30.20;84.00;;;;;;5060806;28;20633;-92
2021/06/17 09:51:31;;;;;;;4.40;4.10;;;30.30;81.80;;;;;;5058839;28;20621;-92
2021/06/17 09:54:26;;;;;;;6.03;4.53;;;30.20;82.00;;;;;;5057378;28;20660;-91
2021/06/17 09:56:57;;;;;;;4.03;3.73;;;30.20;81.50;;;;;;5012539;28;20716;-91
2021/06/17 09:59:36;;;;;;;5.03;3.50;;;30.40;82.50;;;;;;5058868;28;20679;-92
2021/06/17 10:02:05;;;;;;;3.93;3.60;;;30.70;78.90;;;;;;5061311;28;22095;-92
2021/06/17 10:04:32;;;;;;;3.77;3.17;;;30.70;76.90;;;;;;5060648;28;20623;-92
2021/06/17 10:07:00;;;;;;;3.93;2.93;;;30.80;77.00;;;;;;5058991;28;20664;-92
2021/06/17 10:09:27;;;;;;;7.13;3.40;;;31.00;75.20;;;;;;5057980;28;20617;-92
2021/06/17 10:11:54;;;;;;;4.00;3.40;;;31.10;74.80;;;;;;5060866;28;20663;-92
2021/06/17 10:14:22;;;;;;;3.60;3.30;;;31.10;74.90;;;;;;5057057;28;21363;-92
2021/06/17 10:16:48;;;;;;;4.47;4.07;;;31.30;72.80;;;;;;5057458;28;20616;-92
2021/06/17 10:19:19;;;;;;;5.90;3.40;;;31.50;73.60;;;;;;5059358;28;21011;-91
2021/06/17 10:21:46;;;;;;;5.80;3.27;;;31.50;71.60;;;;;;5059928;28;21016;-92
2021/06/17 10:24:16;;;;;;;4.87;4.20;;;31.60;72.60;;;;;;5058749;28;21049;-92
2021/06/17 10:26:45;;;;;;;6.20;4.97;;;31.90;72.60;;;;;;5058747;28;20640;-92
2021/06/17 10:29:39;;;;;;;5.20;4.70;;;32.00;74.00;;;;;;5057478;28;20674;-92
2021/06/17 10:32:08;;;;;;;4.97;4.07;;;32.20;74.70;;;;;;5049914;28;21205;-92
2021/06/17 10:34:46;;;;;;;3.93;3.63;;;32.40;72.10;;;;;;5063190;28;21216;-91
2021/06/17 10:37:26;;;;;;;4.47;4.10;;;32.30;72.80;;;;;;5057451;28;21043;-90
2021/06/17 10:39:58;;;;;;;4.63;4.20;;;32.50;72.50;;;;;;5055605;28;20716;-90
2021/06/17 10:42:33;;;;;;;5.53;3.70;;;32.70;71.20;;;;;;5067987;28;20648;-90
2021/06/17 10:45:01;;;;;;;4.63;4.23;;;33.00;71.50;;;;;;5061488;28;20610;-93
2021/06/17 10:48:13;;;;;;;5.50;4.97;;;33.00;70.30;;;;;;5061736;28;20709;-89
2021/06/17 10:50:53;;;;;;;6.20;3.90;;;33.20;69.10;;;;;;5061326;28;20619;-91
2021/06/17 10:53:44;;;;;;;4.90;4.17;;;33.40;70.70;;;;;;5059788;28;20680;-89
2021/06/17 10:56:16;;;;;;;8.13;5.10;;;33.70;69.60;;;;;;5059759;28;20620;-89
2021/06/17 10:58:53;;;;;;;5.57;4.80;;;33.60;68.00;;;;;;5059506;28;21169;-91
2021/06/17 11:01:24;;;;;;;6.20;4.50;;;33.30;66.10;;;;;;5054367;28;21343;-90
2021/06/17 11:04:03;;;;;;;5.03;4.33;;;33.60;66.40;;;;;;5058360;28;20613;-90
2021/06/17 11:07:07;;;;;;;7.53;4.33;;;34.00;65.10;;;;;;5056669;28;20636;-90
2021/06/17 11:09:46;;;;;;;4.57;4.27;;;33.90;64.60;;;;;;5056997;28;20737;-89
2021/06/17 11:12:56;;;;;;;5.23;4.73;;;33.90;65.70;;;;;;5060622;28;20651;-88
2021/06/17 11:15:47;;;;;;;4.03;3.73;;;33.90;64.70;;;;;;5063921;28;21127;-89
2021/06/17 11:18:16;;;;;;;5.23;4.23;;;34.40;64.00;;;;;;5060251;28;20636;-89
2021/06/17 11:20:45;;;;;;;5.47;4.73;;;34.60;63.80;;;;;;5061356;28;21011;-89
2021/06/17 11:23:17;;;;;;;7.70;4.00;;;34.80;63.10;;;;;;5063078;28;20648;-89
2021/06/17 11:25:48;;;;;;;4.67;4.17;;;35.10;63.50;;;;;;5062848;28;20634;-89
2021/06/17 11:28:17;;;;;;;4.87;3.90;;;35.10;62.00;;;;;;5059119;28;20636;-89
2021/06/17 11:31:01;;;;;;;4.40;4.07;;;35.40;60.90;;;;;;5060875;28;20625;-90
2021/06/17 11:33:47;;;;;;;4.53;4.20;;;35.30;59.30;;;;;;5059465;28;20750;-89
2021/06/17 11:36:20;;;;;;;4.40;4.00;;;35.40;58.50;;;;;;5064255;28;20622;-89
2021/06/17 11:38:52;;;;;;;5.13;4.60;;;35.30;59.00;;;;;;5061958;28;20698;-89
2021/06/17 11:41:25;;;;;;;5.03;4.73;;;35.80;59.60;;;;;;5062074;28;20629;-89
2021/06/17 11:43:54;;;;;;;4.87;4.43;;;35.80;57.40;;;;;;5062333;28;21559;-90
2021/06/17 11:46:24;;;;;;;4.63;4.23;;;35.80;57.20;;;;;;5061163;28;20635;-90
2021/06/17 11:48:52;;;;;;;5.43;4.07;;;35.80;56.60;;;;;;5061025;28;20668;-91
2021/06/17 11:51:20;;;;;;;4.00;3.70;;;36.20;56.80;;;;;;5065572;28;20206;-92
2021/06/17 11:53:50;;;;;;;6.77;4.17;;;36.50;56.00;;;;;;5063688;28;20215;-92
2021/06/17 11:56:27;;;;;;;4.70;4.32;;;36.60;55.80;;;;;;5063041;28;20260;-92
2021/06/17 11:58:54;;;;;;;4.13;3.80;;;36.80;56.10;;;;;;5062335;28;20202;-92
2021/06/17 12:01:21;;;;;;;5.50;3.75;;;36.70;55.60;;;;;;5063499;28;20206;-93
2021/06/17 12:04:09;;;;;;;4.18;3.88;;;37.00;55.30;;;;;;5062091;28;20221;-91
2021/06/17 12:06:37;;;;;;;4.05;3.65;;;37.20;55.60;;;;;;5061162;28;20206;-93
2021/06/17 12:09:10;;;;;;;4.45;4.05;;;37.40;56.30;;;;;;5066103;28;20211;-94
2021/06/17 12:11:39;;;;;;;4.40;4.00;;;37.90;52.50;;;;;;5064605;28;20581;-94
2021/06/17 12:14:06;;;;;;;4.95;4.28;;;37.60;52.10;;;;;;5063351;28;21002;-94
2021/06/17 12:16:33;;;;;;;4.70;3.97;;;38.00;52.70;;;;;;5065657;28;20210;-94
2021/06/17 12:19:01;;;;;;;3.95;3.63;;;38.50;51.60;;;;;;5064002;28;20194;-95
2021/06/17 12:21:33;;;;;;;3.90;3.60;;;38.40;51.00;;;;;;5061645;28;20210;-94
2021/06/17 12:24:01;;;;;;;4.05;3.65;;;38.30;50.70;;;;;;5058995;28;20620;-93
2021/06/17 12:26:32;;;;;;;4.32;4.03;;;38.10;52.20;;;;;;5059268;28;20206;-93
2021/06/17 12:29:05;;;;;;;4.45;4.15;;;38.80;49.30;;;;;;5058569;28;20195;-93
2021/06/17 12:31:36;;;;;;;4.50;4.05;;;38.70;49.10;;;;;;5060380;28;20212;-92
2021/06/17 12:34:12;;;;;;;7.97;4.18;;;39.00;47.90;;;;;;5058070;28;20601;-93
2021/06/17 12:36:39;;;;;;;7.53;4.22;;;39.20;48.20;;;;;;5060016;28;20198;-93
2021/06/17 12:39:11;;;;;;;4.28;3.97;;;39.30;49.20;;;;;;5061166;28;20298;-93
2021/06/17 12:41:44;;;;;;;24.45;5.82;;;39.00;48.50;;;;;;5060350;28;20669;-93
2021/06/17 12:44:29;;;;;;;4.72;3.80;;;39.20;49.30;;;;;;5061213;28;20653;-92
2021/06/17 12:46:58;;;;;;;6.13;4.25;;;38.60;47.50;;;;;;5061142;28;20218;-93
2021/06/17 12:52:12;;;;;;;7.45;4.20;;;39.20;48.10;;;;;;5062709;28;20209;-93
2021/06/17 12:54:40;;;;;;;6.85;3.60;;;39.40;47.90;;;;;;5059734;28;20930;-93
2021/06/17 12:57:15;;;;;;;4.88;3.88;;;39.30;47.10;;;;;;5062589;28;20222;-92
2021/06/17 12:59:53;;;;;;;4.72;4.20;;;39.10;46.10;;;;;;5060051;28;20260;-93
2021/06/17 13:02:44;;;;;;;3.97;3.78;;;39.20;46.10;;;;;;5061530;28;20544;-92
2021/06/17 13:05:13;;;;;;;5.65;4.25;;;39.10;45.40;;;;;;5063255;28;20206;-93
2021/06/17 13:07:57;;;;;;;4.70;3.60;;;38.80;45.50;;;;;;5059672;28;20234;-93
2021/06/17 13:10:25;;;;;;;4.35;3.15;;;38.80;45.50;;;;;;5061477;28;20206;-93